Time;durP1;ratioP1;P1;durP2;ratioP2;P2;SDS_P1;SDS_P2;PMS_P1;PMS_P2;Temp;Humidity;BMP_temperature;BMP_pressure;BME280_temperature;BME280_humidity;BME280_pressure;Samples;Min_cycle;Max_cycle;Signal;HPM_P1;HPM_P2
2022/01/20 05:00:43;;;;;;;227.40;129.40;;;;;;;-7.11;100.00;95289.69;6075479;23;20025;31
2022/01/20 05:03:08;;;;;;;60.67;34.80;;;;;;;-7.01;100.00;95288.47;4941575;29;20059;-75
2022/01/20 05:05:34;;;;;;;22.58;15.73;;;;;;;-6.91;100.00;95281.41;4948360;29;20039;-75
2022/01/20 05:08:00;;;;;;;22.05;12.50;;;;;;;-6.70;100.00;95293.13;4948038;29;20118;-75
2022/01/20 05:10:28;;;;;;;31.55;14.60;;;;;;;-6.91;100.00;95285.59;4932730;29;20035;-76
2022/01/20 05:15:20;;;;;;;49.22;20.00;;;;;;;-6.83;100.00;95281.06;4949007;29;20097;-76
2022/01/20 05:17:45;;;;;;;27.52;14.00;;;;;;;-6.75;100.00;95281.63;4947448;29;20038;-75
2022/01/20 05:20:11;;;;;;;30.00;16.50;;;;;;;-6.82;100.00;95280.22;4932835;29;20031;-76
2022/01/20 05:22:36;;;;;;;24.15;14.68;;;;;;;-6.70;100.00;95287.28;4947593;29;20131;-77
2022/01/20 05:25:03;;;;;;;25.05;13.35;;;;;;;-6.53;100.00;95285.75;4948666;29;20027;-77
2022/01/20 05:27:29;;;;;;;24.85;12.75;;;;;;;-6.69;100.00;95282.19;4948376;29;20042;-77
2022/01/20 05:29:55;;;;;;;30.50;14.57;;;;;;;-6.64;100.00;95284.50;4947432;29;20087;-76
2022/01/20 05:32:21;;;;;;;28.75;12.65;;;;;;;-6.50;100.00;95287.31;4948781;29;20508;-76
2022/01/20 05:34:47;;;;;;;22.88;11.23;;;;;;;-6.42;100.00;95280.25;4947327;29;20078;-75
2022/01/20 05:37:12;;;;;;;35.80;15.50;;;;;;;-6.56;100.00;95290.09;4934494;29;20035;-75
2022/01/20 05:39:37;;;;;;;31.90;15.50;;;;;;;-6.86;100.00;95292.09;4951018;29;20077;-75
2022/01/20 05:42:03;;;;;;;20.75;11.48;;;;;;;-6.85;100.00;95276.13;4952782;29;20468;-76
2022/01/20 05:44:29;;;;;;;23.40;12.10;;;;;;;-6.50;100.00;95288.16;4951594;28;20137;-74
2022/01/20 05:46:54;;;;;;;28.33;11.63;;;;;;;-6.58;100.00;95276.75;4931337;29;20155;-74
2022/01/20 05:49:22;;;;;;;21.60;10.80;;;;;;;-6.69;100.00;95281.38;4950372;28;20444;-74
2022/01/20 05:51:52;;;;;;;22.77;11.30;;;;;;;-6.83;100.00;95281.91;4950516;28;20523;-74
2022/01/20 05:54:18;;;;;;;17.10;10.02;;;;;;;-7.00;100.00;95294.34;4952049;28;20033;-75
2022/01/20 05:56:43;;;;;;;25.15;11.10;;;;;;;-6.59;100.00;95288.50;4949749;28;20031;-74
2022/01/20 05:59:09;;;;;;;20.88;10.20;;;;;;;-6.41;100.00;95277.69;4950412;28;20102;-75
2022/01/20 06:01:37;;;;;;;17.80;10.05;;;;;;;-6.36;100.00;95282.56;4950047;28;20081;-75
2022/01/20 06:04:05;;;;;;;22.65;10.95;;;;;;;-6.19;100.00;95276.81;4951397;28;20027;-75
2022/01/20 06:06:30;;;;;;;18.75;9.77;;;;;;;-5.99;100.00;95270.06;4967116;28;20042;-75
2022/01/20 06:08:56;;;;;;;22.00;10.43;;;;;;;-6.19;100.00;95266.72;4932808;28;20073;-75
2022/01/20 06:11:21;;;;;;;25.65;12.23;;;;;;;-5.99;100.00;95269.25;4952631;28;20082;-77
2022/01/20 06:13:47;;;;;;;25.80;14.05;;;;;;;-5.67;100.00;95271.19;4949050;28;20078;-77
2022/01/20 06:16:12;;;;;;;25.38;11.30;;;;;;;-5.80;100.00;95260.00;4951651;28;20408;-77
2022/01/20 06:18:38;;;;;;;23.50;9.77;;;;;;;-5.96;100.00;95264.91;4949963;28;20090;-77
2022/01/20 06:21:03;;;;;;;18.73;9.90;;;;;;;-6.15;100.00;95271.59;4952312;28;20024;-77
2022/01/20 06:23:29;;;;;;;28.83;11.40;;;;;;;-6.30;100.00;95274.75;4950904;28;20114;-77
2022/01/20 06:25:54;;;;;;;23.65;11.30;;;;;;;-6.24;100.00;95276.19;4949961;28;20038;-75
2022/01/20 06:28:20;;;;;;;20.05;10.00;;;;;;;-5.72;100.00;95287.41;4946254;28;20036;-75
2022/01/20 06:30:46;;;;;;;28.60;13.07;;;;;;;-5.29;100.00;95282.13;4933247;28;20054;-75
2022/01/20 06:33:12;;;;;;;24.15;11.30;;;;;;;-4.29;96.97;95277.41;4936588;28;20023;-75
2022/01/20 06:35:37;;;;;;;27.15;12.70;;;;;;;-4.28;92.32;95281.59;4938584;28;20030;-76
2022/01/20 06:38:03;;;;;;;33.00;16.52;;;;;;;-4.63;92.99;95282.44;4931096;29;20036;-75
2022/01/20 06:40:30;;;;;;;35.17;16.42;;;;;;;-4.67;92.64;95281.78;4930963;29;20035;-75
2022/01/20 06:42:55;;;;;;;18.95;10.32;;;;;;;-3.84;92.43;95271.81;4943024;28;20121;-76
2022/01/20 06:45:22;;;;;;;30.20;14.63;;;;;;;-3.93;90.62;95264.69;4949953;28;20051;-75
2022/01/20 06:47:48;;;;;;;30.13;14.15;;;;;;;-3.33;89.10;95263.25;4964358;28;20030;-75
2022/01/20 06:50:14;;;;;;;26.65;15.98;;;;;;;-3.32;88.45;95257.31;4945634;28;20032;-75
2022/01/20 06:52:39;;;;;;;34.17;18.17;;;;;;;-2.57;87.02;95260.00;4929109;29;20535;-75
2022/01/20 06:55:07;;;;;;;26.77;15.55;;;;;;;-2.51;86.39;95251.22;4947442;28;20019;-75
2022/01/20 06:57:36;;;;;;;25.08;15.35;;;;;;;-0.81;79.58;95245.31;4945667;28;20016;-75
2022/01/20 07:00:22;;;;;;;27.67;14.82;;;;;;;-0.07;71.17;95253.25;4945675;28;20083;-76
2022/01/20 07:02:48;;;;;;;23.98;14.02;;;;;;;1.65;65.96;95251.63;4931479;29;20119;-75
2022/01/20 07:05:15;;;;;;;22.98;12.93;;;;;;;2.27;63.04;95253.00;4930185;29;20485;-76
2022/01/20 07:07:41;;;;;;;26.80;12.60;;;;;;;1.47;64.20;95254.59;4927088;29;20600;-76
2022/01/20 07:10:08;;;;;;;22.15;12.00;;;;;;;-0.30;71.89;95263.28;4941157;28;20119;-75
2022/01/20 07:12:34;;;;;;;18.88;13.38;;;;;;;-0.10;74.62;95263.59;4949925;29;20031;-77
2022/01/20 07:14:59;;;;;;;36.72;22.38;;;;;;;0.37;72.64;95257.16;4940200;28;20028;-77
2022/01/20 07:17:25;;;;;;;25.38;16.20;;;;;;;-1.38;79.45;95264.88;4931014;29;20079;-74
2022/01/20 07:19:50;;;;;;;37.47;19.85;;;;;;;-0.76;81.57;95266.16;4944601;28;20035;-75
2022/01/20 07:22:16;;;;;;;41.05;24.27;;;;;;;-0.64;76.51;95256.94;4937332;28;21272;-74
2022/01/20 07:24:42;;;;;;;41.45;25.48;;;;;;;-1.11;83.27;95247.19;4946431;28;20504;-75
2022/01/20 07:27:08;;;;;;;56.88;31.30;;;;;;;-1.29;79.31;95235.59;4949653;28;20101;-74
2022/01/20 07:29:34;;;;;;;44.22;24.67;;;;;;;1.22;72.55;95236.03;4949800;28;20074;-75
2022/01/20 07:32:01;;;;;;;45.83;22.65;;;;;;;1.37;66.69;95235.75;4931674;29;20408;-74
2022/01/20 07:34:27;;;;;;;31.48;20.08;;;;;;;0.87;71.14;95248.63;4943177;28;20423;-75
2022/01/20 07:36:52;;;;;;;34.50;19.25;;;;;;;2.17;64.79;95241.03;4937613;28;20102;-74
2022/01/20 07:39:18;;;;;;;41.08;22.85;;;;;;;1.33;67.64;95247.09;4948292;28;20934;-75
2022/01/20 07:41:43;;;;;;;31.77;20.80;;;;;;;2.67;63.79;95238.06;4949948;28;20481;-75
2022/01/20 07:44:09;;;;;;;30.52;18.98;;;;;;;3.33;56.61;95228.69;4947665;28;20046;-75
2022/01/20 07:46:35;;;;;;;37.60;19.95;;;;;;;3.71;56.16;95236.72;4933567;29;20026;-75
2022/01/20 07:49:00;;;;;;;32.67;19.83;;;;;;;2.05;63.84;95248.66;4930261;29;20093;-75
2022/01/20 07:51:26;;;;;;;32.22;20.92;;;;;;;3.04;57.16;95241.19;4952157;28;20492;-75
2022/01/20 07:53:52;;;;;;;32.25;21.00;;;;;;;4.60;55.43;95241.34;4933963;28;20127;-75
2022/01/20 07:56:17;;;;;;;26.85;18.50;;;;;;;4.84;54.06;95246.19;4962146;28;20023;-74
2022/01/20 07:58:43;;;;;;;30.70;17.05;;;;;;;5.11;51.27;95239.53;4960873;28;20046;-74
2022/01/20 08:01:08;;;;;;;31.30;18.50;;;;;;;5.73;51.07;95241.84;4929963;29;20550;-75
2022/01/20 08:03:34;;;;;;;30.75;21.45;;;;;;;7.59;46.44;95235.94;4954823;28;20404;-75
2022/01/20 08:06:01;;;;;;;36.25;22.88;;;;;;;8.29;44.69;95242.88;4953776;28;20146;-74
2022/01/20 08:08:27;;;;;;;33.10;23.42;;;;;;;8.71;44.35;95243.81;4945393;28;21493;-75
2022/01/20 08:10:54;;;;;;;34.75;21.67;;;;;;;10.57;41.22;95239.19;4945145;28;20074;-74
2022/01/20 08:13:19;;;;;;;27.02;17.92;;;;;;;12.41;37.91;95248.13;4949681;29;20041;-74
2022/01/20 08:15:45;;;;;;;20.30;14.35;;;;;;;12.57;36.29;95254.00;4948496;29;20483;-74
2022/01/20 08:18:10;;;;;;;20.60;15.73;;;;;;;11.09;38.49;95247.34;4931832;29;20038;-74
2022/01/20 08:20:36;;;;;;;26.35;16.40;;;;;;;13.50;35.35;95246.59;4948250;29;20039;-74
2022/01/20 08:23:01;;;;;;;19.80;14.55;;;;;;;12.88;36.01;95240.88;4947028;29;20105;-75
2022/01/20 08:25:27;;;;;;;27.85;14.60;;;;;;;10.76;38.72;95236.25;4942982;28;20434;-74
2022/01/20 08:27:53;;;;;;;23.88;15.15;;;;;;;12.34;36.80;95229.03;4934067;29;20033;-75
2022/01/20 08:30:20;;;;;;;19.02;13.15;;;;;;;9.79;41.57;95225.06;4948246;29;20034;-75
2022/01/20 08:32:47;;;;;;;20.30;13.50;;;;;;;13.12;36.38;95226.88;4947933;29;20038;-75
2022/01/20 08:35:13;;;;;;;20.67;12.38;;;;;;;11.90;39.34;95226.25;4947076;29;20035;-75
2022/01/20 08:37:42;;;;;;;20.92;11.93;;;;;;;11.42;38.09;95222.13;4949693;28;20471;-75
2022/01/20 08:40:11;;;;;;;17.27;11.00;;;;;;;12.00;36.80;95226.84;4930108;29;20136;-75
2022/01/20 08:42:37;;;;;;;16.38;9.55;;;;;;;12.42;34.43;95222.00;4931517;29;20525;-76
2022/01/20 08:45:03;;;;;;;14.35;8.43;;;;;;;11.53;36.35;95224.31;4929933;29;20071;-75
2022/01/20 08:47:28;;;;;;;12.38;7.57;;;;;;;8.88;39.88;95232.63;4931484;29;20082;-75
2022/01/20 08:49:53;;;;;;;14.32;9.25;;;;;;;9.84;36.64;95235.72;4939682;29;20027;-74
2022/01/20 08:52:21;;;;;;;10.77;8.40;;;;;;;11.73;33.76;95228.16;4935831;29;20456;-74
2022/01/20 08:54:47;;;;;;;13.38;8.70;;;;;;;11.37;35.70;95224.38;4934262;29;20055;-75
2022/01/20 08:57:13;;;;;;;13.90;8.65;;;;;;;13.01;34.62;95222.88;4930524;29;20023;-75
2022/01/20 08:59:41;;;;;;;12.60;8.98;;;;;;;13.65;31.82;95217.91;4914385;29;20070;-74
2022/01/20 09:02:08;;;;;;;13.73;9.43;;;;;;;13.81;31.85;95219.50;4927564;29;20486;-76
2022/01/20 09:04:33;;;;;;;13.90;9.20;;;;;;;12.11;34.07;95222.06;4939765;29;20063;-75
2022/01/20 09:06:59;;;;;;;11.77;7.95;;;;;;;13.88;31.48;95215.16;4930344;29;20059;-74
2022/01/20 09:09:24;;;;;;;13.02;8.95;;;;;;;13.61;31.29;95209.66;4928561;29;20489;-74
2022/01/20 09:17:32;;;;;;;14.77;8.82;;;;;;;14.33;31.17;95208.81;4944633;29;20086;-74
2022/01/20 09:19:58;;;;;;;16.35;9.55;;;;;;;13.80;31.17;95200.50;4940035;28;20038;-74
2022/01/20 09:22:26;;;;;;;17.42;10.43;;;;;;;14.47;31.62;95207.97;4952135;28;20106;-74
2022/01/20 09:24:51;;;;;;;14.60;10.82;;;;;;;13.71;31.87;95199.78;4948272;28;20027;-74
2022/01/20 09:27:18;;;;;;;16.63;12.25;;;;;;;13.60;31.58;95213.28;4950700;28;20086;-74
2022/01/20 09:29:45;;;;;;;13.82;10.27;;;;;;;12.75;32.17;95209.50;4956151;28;20084;-74
2022/01/20 09:32:12;;;;;;;13.68;9.77;;;;;;;13.82;31.29;95195.09;4952912;28;20027;-74
2022/01/20 09:34:38;;;;;;;17.38;11.13;;;;;;;12.65;33.35;95191.56;4955348;28;20415;-74
2022/01/20 09:37:04;;;;;;;12.00;10.15;;;;;;;13.62;32.13;95187.88;4954587;28;20110;-74
2022/01/20 09:39:29;;;;;;;16.98;9.80;;;;;;;13.58;31.90;95191.81;4955254;28;20021;-74
2022/01/20 09:41:55;;;;;;;12.98;10.00;;;;;;;15.52;29.47;95172.09;4941320;28;20057;-75
2022/01/20 09:44:20;;;;;;;16.95;9.85;;;;;;;15.67;29.95;95172.75;4947328;28;20583;-74
2022/01/20 09:46:47;;;;;;;16.52;10.73;;;;;;;14.70;30.57;95169.44;4946360;28;20031;-74
2022/01/20 09:49:13;;;;;;;14.88;9.93;;;;;;;14.20;30.91;95168.63;4947601;28;20509;-73
2022/01/20 09:51:42;;;;;;;14.50;9.40;;;;;;;13.09;32.17;95162.22;4947523;28;20031;-73
2022/01/20 09:54:08;;;;;;;13.18;9.43;;;;;;;14.38;29.19;95154.38;4947128;28;20023;-74
2022/01/20 09:56:35;;;;;;;14.20;9.48;;;;;;;13.89;29.88;95141.28;4939058;28;20062;-74
2022/01/20 09:59:01;;;;;;;12.38;9.65;;;;;;;14.05;30.18;95138.44;4938086;28;20066;-74
2022/01/20 10:01:57;;;;;;;14.90;8.73;;;;;;;15.37;28.35;95143.50;4944671;28;20497;-74
2022/01/20 10:04:35;;;;;;;17.23;10.10;;;;;;;14.49;28.71;95136.41;4941482;28;20043;-74
2022/01/20 10:07:03;;;;;;;16.08;10.20;;;;;;;13.86;30.39;95126.84;4934661;28;20102;-74
2022/01/20 10:09:39;;;;;;;13.27;10.47;;;;;;;15.15;28.72;95119.34;4936424;28;20063;-74
2022/01/20 10:12:07;;;;;;;14.77;10.45;;;;;;;14.68;29.51;95117.47;4934066;28;20035;-73
2022/01/20 10:14:55;;;;;;;18.02;11.57;;;;;;;13.40;31.61;95123.78;4958157;28;20027;-74
2022/01/20 10:17:29;;;;;;;14.70;11.68;;;;;;;14.06;31.02;95106.97;4945134;28;20016;-74
2022/01/20 10:19:57;;;;;;;17.90;11.55;;;;;;;14.13;31.03;95110.44;4942007;28;20023;-74
2022/01/20 10:22:23;;;;;;;18.52;12.55;;;;;;;13.52;31.37;95101.47;4940719;28;20883;-75
2022/01/20 10:25:04;;;;;;;17.40;11.80;;;;;;;15.26;29.72;95104.91;4938860;28;20493;-75
2022/01/20 10:27:33;;;;;;;19.38;10.45;;;;;;;15.02;28.19;95101.03;4965020;28;20423;-75
2022/01/20 10:30:00;;;;;;;25.00;11.65;;;;;;;14.33;28.77;95096.75;4949585;28;20034;-75
2022/01/20 10:32:26;;;;;;;15.00;11.30;;;;;;;13.99;30.48;95084.50;4950267;28;20046;-76
2022/01/20 10:35:06;;;;;;;19.00;11.40;;;;;;;12.74;31.37;95083.16;4951282;28;20106;-76
2022/01/20 10:37:31;;;;;;;21.83;11.02;;;;;;;13.80;30.59;95075.53;4951238;28;20051;-76
2022/01/20 10:40:12;;;;;;;20.67;12.13;;;;;;;9.77;35.16;95075.19;4944728;28;20513;-76
2022/01/20 10:42:41;;;;;;;18.45;10.20;;;;;;;7.50;40.82;95072.72;4929158;29;20028;-76
2022/01/20 10:45:07;;;;;;;19.60;11.43;;;;;;;7.08;40.59;95069.09;4950951;28;20081;-76
2022/01/20 10:47:36;;;;;;;20.10;11.82;;;;;;;7.57;42.75;95072.91;4952868;28;20087;-76
2022/01/20 10:50:14;;;;;;;13.38;9.50;;;;;;;7.49;40.60;95068.50;4941744;28;20427;-76
2022/01/20 10:52:44;;;;;;;18.05;10.80;;;;;;;6.15;43.24;95053.91;4961549;28;20027;-75
2022/01/20 10:55:30;;;;;;;17.48;9.75;;;;;;;7.42;41.21;95049.44;4954231;28;20408;-74
2022/01/20 10:58:07;;;;;;;18.10;9.82;;;;;;;8.58;41.09;95039.50;4947560;28;20042;-75
2022/01/20 11:00:44;;;;;;;20.45;10.43;;;;;;;7.47;41.47;95047.25;4937630;28;20027;-75
2022/01/20 11:03:09;;;;;;;14.13;8.18;;;;;;;7.09;44.22;95042.41;4946737;28;20062;-74
2022/01/20 11:05:35;;;;;;;11.25;8.18;;;;;;;7.21;44.05;95048.94;4946204;28;20055;-74
2022/01/20 11:08:02;;;;;;;12.40;8.02;;;;;;;7.70;43.21;95030.34;4961742;28;20110;-75
2022/01/20 11:10:27;;;;;;;16.55;7.93;;;;;;;7.38;43.38;95030.09;4947914;28;20102;-75
2022/01/20 11:12:52;;;;;;;17.40;8.77;;;;;;;7.09;43.34;95034.69;4948666;28;20039;-76
2022/01/20 11:15:20;;;;;;;15.52;7.75;;;;;;;6.54;44.05;95037.34;4948362;28;20028;-76
2022/01/20 11:17:52;;;;;;;13.32;8.25;;;;;;;7.25;43.17;95027.09;4948300;29;20027;-76
2022/01/20 11:20:20;;;;;;;13.43;8.50;;;;;;;7.01;43.79;95030.25;4950039;29;20034;-75
2022/01/20 11:22:56;;;;;;;12.63;7.88;;;;;;;6.94;44.08;95021.50;4949754;28;20027;-75
2022/01/20 11:25:25;;;;;;;24.67;9.02;;;;;;;7.11;44.98;95025.03;4951175;29;20047;-76
2022/01/20 11:28:01;;;;;;;13.25;8.38;;;;;;;7.25;44.67;95027.09;4949455;29;20019;-75
2022/01/20 11:30:29;;;;;;;13.95;8.27;;;;;;;6.90;43.35;95020.97;4944361;29;20561;-76
2022/01/20 11:33:10;;;;;;;15.02;7.90;;;;;;;6.67;43.72;95009.53;4952521;28;20471;-76
2022/01/20 11:35:45;;;;;;;15.18;8.10;;;;;;;6.95;43.88;95004.28;4950451;28;20039;-75
2022/01/20 11:38:14;;;;;;;17.50;8.48;;;;;;;7.19;42.79;94995.00;4934297;29;20023;-75
2022/01/20 11:41:10;;;;;;;13.48;7.18;;;;;;;7.01;40.81;94985.69;4949421;29;20035;-74
2022/01/20 11:44:16;;;;;;;12.52;6.60;;;;;;;7.56;41.73;94981.91;4927010;29;20091;-75
2022/01/20 11:46:44;;;;;;;11.05;6.13;;;;;;;7.01;42.30;94975.38;4929461;29;20039;-76
2022/01/20 11:49:15;;;;;;;14.77;7.55;;;;;;;7.50;40.95;94964.50;4929196;29;20513;-76
2022/01/20 11:51:55;;;;;;;13.90;7.07;;;;;;;7.38;39.63;94955.41;4944699;29;20497;-76
2022/01/20 11:54:24;;;;;;;9.30;6.28;;;;;;;7.65;41.00;94962.16;4924520;29;20047;-77
2022/01/20 11:56:50;;;;;;;13.68;5.90;;;;;;;7.16;42.34;94966.19;4941064;29;20027;-76
2022/01/20 11:59:16;;;;;;;9.43;6.00;;;;;;;7.10;42.52;94969.34;4931529;29;20500;-75
2022/01/20 12:01:51;;;;;;;8.35;5.72;;;;;;;7.08;40.80;94961.78;4949528;28;20076;-75
2022/01/20 12:04:17;;;;;;;12.48;6.63;;;;;;;7.30;41.60;94961.28;4948673;29;20035;-75
2022/01/20 12:06:46;;;;;;;9.32;5.88;;;;;;;7.10;42.07;94954.69;4953422;29;20035;-75
2022/01/20 12:09:13;;;;;;;10.75;5.43;;;;;;;7.77;41.71;94948.06;4950408;29;20031;-75
2022/01/20 12:11:41;;;;;;;15.90;7.15;;;;;;;7.46;40.59;94952.06;4945029;28;20034;-75
2022/01/20 12:14:07;;;;;;;10.15;7.68;;;;;;;7.49;40.98;94939.69;4947775;28;20500;-75
2022/01/20 12:16:34;;;;;;;13.43;6.93;;;;;;;7.64;41.31;94935.56;4951816;29;20038;-76
2022/01/20 12:19:00;;;;;;;14.02;6.90;;;;;;;7.95;40.75;94923.00;4948930;29;20023;-76
2022/01/20 12:21:27;;;;;;;9.32;5.47;;;;;;;7.83;40.67;94934.56;4950261;29;20113;-76
2022/01/20 12:23:54;;;;;;;9.60;5.57;;;;;;;7.59;40.38;94942.16;4948369;29;20046;-76
2022/01/20 12:26:20;;;;;;;13.20;5.70;;;;;;;7.65;40.84;94937.19;4951188;28;20497;-75
2022/01/20 12:28:46;;;;;;;12.88;6.78;;;;;;;7.64;41.03;94935.56;4935592;29;20035;-76
2022/01/20 12:31:13;;;;;;;11.07;4.82;;;;;;;7.72;41.75;94935.63;4948300;29;20658;-75
2022/01/20 12:33:43;;;;;;;6.50;4.80;;;;;;;7.50;41.66;94932.75;4931442;28;20131;-76
2022/01/20 12:36:16;;;;;;;;;;;;;;;7.67;41.41;94926.75;4933654;29;20050;-75
2022/01/20 12:38:45;;;;;;;12.77;4.72;;;;;;;7.70;41.16;94936.75;4950913;28;20323;-76
2022/01/20 12:41:15;;;;;;;10.38;4.30;;;;;;;7.85;42.16;94936.00;4925093;29;20090;-75
2022/01/20 12:43:40;;;;;;;7.07;2.92;;;;;;;7.67;42.24;94937.88;4947039;29;20039;-76
2022/01/20 12:46:08;;;;;;;4.25;2.53;;;;;;;7.90;41.61;94930.38;4938269;28;20046;-74
2022/01/20 12:48:33;;;;;;;2.67;1.88;;;;;;;8.11;41.39;94935.94;4935918;29;20516;-75
2022/01/20 12:51:01;;;;;;;4.03;2.20;;;;;;;7.66;42.13;94928.50;4943564;29;20024;-75
2022/01/20 12:53:44;;;;;;;3.63;1.73;;;;;;;7.72;42.53;94920.16;4942094;29;20044;-75
2022/01/20 12:56:12;;;;;;;6.40;2.72;;;;;;;7.76;43.32;94924.06;4943056;29;20027;-75
2022/01/20 12:58:50;;;;;;;5.57;2.65;;;;;;;7.87;43.33;94916.03;4957875;28;20031;-75
2022/01/20 13:01:15;;;;;;;6.85;2.35;;;;;;;7.77;43.26;94922.28;4962459;28;20030;-75
2022/01/20 13:03:41;;;;;;;3.63;2.50;;;;;;;7.50;42.36;94914.72;4942712;28;20035;-76
2022/01/20 13:06:19;;;;;;;5.10;2.47;;;;;;;7.50;41.96;94902.66;4940137;28;20428;-76
2022/01/20 13:09:07;;;;;;;3.42;2.00;;;;;;;7.51;42.62;94906.03;4938180;29;20154;-76
2022/01/20 13:11:41;;;;;;;4.63;2.65;;;;;;;7.38;42.83;94903.88;4930339;28;20043;-76
2022/01/20 13:14:06;;;;;;;3.95;2.58;;;;;;;7.42;43.92;94905.97;4935822;28;20035;-76
2022/01/20 13:16:32;;;;;;;6.20;2.53;;;;;;;7.45;43.04;94902.28;4941453;29;20883;-76
2022/01/20 13:19:00;;;;;;;4.85;2.20;;;;;;;7.32;43.23;94897.56;4937655;29;20216;-76
2022/01/20 13:21:39;;;;;;;4.60;2.20;;;;;;;7.39;43.92;94910.63;4937075;29;20544;-76
2022/01/20 13:24:07;;;;;;;4.03;2.05;;;;;;;7.51;43.91;94922.31;4937409;29;20047;-76
2022/01/20 13:26:53;;;;;;;7.28;3.35;;;;;;;7.29;43.75;94920.22;4938546;29;20599;-76
2022/01/20 13:29:20;;;;;;;3.20;2.15;;;;;;;7.20;44.23;94909.06;4946856;28;20523;-75
2022/01/20 13:31:46;;;;;;;2.78;2.22;;;;;;;7.37;43.22;94907.41;4954567;28;20084;-75
2022/01/20 13:34:14;;;;;;;5.78;2.08;;;;;;;7.26;43.66;94911.03;4937079;29;20032;-76
2022/01/20 13:36:45;;;;;;;4.53;1.83;;;;;;;7.34;44.47;94912.88;4941941;28;20043;-75
2022/01/20 13:39:12;;;;;;;4.00;1.73;;;;;;;7.28;44.90;94910.91;4942723;29;20432;-76
2022/01/20 13:41:37;;;;;;;3.10;1.95;;;;;;;6.98;45.42;94903.59;4930834;29;20028;-76
2022/01/20 13:47:02;;;;;;;4.20;1.90;;;;;;;6.97;45.88;94904.59;4936570;29;20050;-75
2022/01/20 13:49:28;;;;;;;3.67;2.17;;;;;;;6.87;46.56;94902.88;4951355;28;20036;-75
2022/01/20 13:52:10;;;;;;;2.85;1.45;;;;;;;6.73;46.63;94888.00;4940097;29;20036;-74
2022/01/20 13:54:41;;;;;;;3.53;1.75;;;;;;;6.83;46.70;94888.72;4944785;29;20134;-75
2022/01/20 13:57:07;;;;;;;2.80;1.70;;;;;;;6.88;47.16;94886.50;4937389;28;20040;-73
2022/01/20 13:59:33;;;;;;;5.43;3.10;;;;;;;6.90;47.05;94876.06;4953881;28;20034;-74
2022/01/20 14:01:59;;;;;;;4.93;2.53;;;;;;;6.94;46.82;94871.38;4948953;28;20051;-75
2022/01/20 14:04:25;;;;;;;4.05;2.58;;;;;;;6.71;46.75;94882.16;4955660;28;20122;-76
2022/01/20 14:06:50;;;;;;;4.25;2.35;;;;;;;6.51;47.24;94857.59;4960745;28;20106;-76
2022/01/20 14:09:15;;;;;;;4.95;2.10;;;;;;;6.67;47.85;94880.88;4948915;29;20069;-76
2022/01/20 14:11:42;;;;;;;7.05;2.45;;;;;;;6.68;48.33;94877.31;4948488;29;20029;-76
2022/01/20 14:14:09;;;;;;;4.53;2.70;;;;;;;6.53;49.38;94873.66;4950621;28;20035;-75
2022/01/20 14:16:35;;;;;;;13.55;5.63;;;;;;;6.61;48.75;94881.47;4934975;29;20055;-77
2022/01/20 14:19:00;;;;;;;9.45;2.13;;;;;;;6.45;48.93;94880.50;4950139;29;20058;-75
2022/01/20 14:21:26;;;;;;;5.88;1.90;;;;;;;6.41;48.92;94874.84;4951719;29;20058;-75
2022/01/20 14:23:52;;;;;;;5.15;3.13;;;;;;;6.33;49.11;94867.88;4951964;28;20470;-75
2022/01/20 14:26:27;;;;;;;4.15;1.90;;;;;;;6.35;49.39;94878.84;4939292;29;20050;-75
2022/01/20 14:28:54;;;;;;;5.85;2.55;;;;;;;6.16;49.89;94871.25;4952984;29;20023;-75
2022/01/20 14:31:23;;;;;;;5.50;2.53;;;;;;;6.05;50.07;94878.34;4955276;29;20086;-75
2022/01/20 14:33:52;;;;;;;6.73;2.90;;;;;;;6.04;50.28;94874.97;4950009;29;20516;-75
2022/01/20 14:36:17;;;;;;;5.32;2.38;;;;;;;5.91;51.01;94868.59;4931851;28;21336;-75
2022/01/20 14:38:43;;;;;;;7.40;2.97;;;;;;;5.88;50.75;94872.22;4923616;29;20063;-75
2022/01/20 14:41:08;;;;;;;5.88;3.00;;;;;;;5.78;50.66;94872.25;4949980;29;20100;-75
2022/01/20 14:43:35;;;;;;;5.53;3.58;;;;;;;5.71;50.90;94863.53;4955210;29;20550;-76
2022/01/20 14:46:02;;;;;;;5.25;3.20;;;;;;;5.59;51.39;94867.22;4970240;28;20043;-76
2022/01/20 14:48:29;;;;;;;4.57;2.80;;;;;;;5.51;51.18;94876.59;4937202;29;20120;-77
2022/01/20 14:50:54;;;;;;;5.20;3.05;;;;;;;5.33;51.48;94856.78;4951633;29;20050;-75
2022/01/20 14:53:20;;;;;;;5.90;3.30;;;;;;;5.48;51.22;94859.72;4950890;29;20552;-76
2022/01/20 14:55:46;;;;;;;8.70;3.88;;;;;;;5.32;51.68;94856.94;4954872;28;20023;-77
2022/01/20 14:58:12;;;;;;;10.07;3.72;;;;;;;5.23;51.82;94858.56;4935151;29;20119;-76
2022/01/20 15:00:37;;;;;;;7.97;3.83;;;;;;;5.07;51.88;94860.13;4950604;28;20416;-75
2022/01/20 15:03:04;;;;;;;3.95;2.72;;;;;;;5.10;51.97;94859.84;4951278;29;20098;-76
2022/01/20 15:05:32;;;;;;;6.85;2.95;;;;;;;4.94;52.48;94852.75;4927907;29;20568;-76
2022/01/20 15:08:01;;;;;;;5.15;3.50;;;;;;;4.80;53.42;94858.31;4951076;29;20457;-76
2022/01/20 15:10:27;;;;;;;15.88;8.20;;;;;;;4.74;53.31;94861.41;4934448;29;20054;-76
2022/01/20 15:12:59;;;;;;;26.85;15.10;;;;;;;4.63;54.33;94854.69;4939646;28;20099;-75
2022/01/20 15:15:25;;;;;;;21.80;11.68;;;;;;;4.55;54.78;94864.81;4950015;29;20114;-76
2022/01/20 15:17:50;;;;;;;7.90;3.55;;;;;;;4.51;55.59;94860.09;4934694;29;20536;-75
2022/01/20 15:20:16;;;;;;;12.15;2.38;;;;;;;4.26;56.21;94861.47;4948743;29;20040;-76
2022/01/20 15:22:41;;;;;;;2.67;1.88;;;;;;;3.93;57.82;94870.31;4948407;28;20046;-73
2022/01/20 15:25:07;;;;;;;5.47;1.90;;;;;;;3.60;59.26;94856.09;4951658;28;20125;-76
2022/01/20 15:27:33;;;;;;;3.45;1.85;;;;;;;3.82;57.20;94860.19;4966686;28;20107;-76
2022/01/20 15:29:58;;;;;;;9.88;1.67;;;;;;;3.41;58.79;94861.16;4957841;28;20030;-75
2022/01/20 15:32:24;;;;;;;3.40;1.70;;;;;;;2.98;61.98;94866.53;4929796;28;20081;-76
2022/01/20 15:34:49;;;;;;;2.92;1.77;;;;;;;2.65;63.95;94871.84;4954391;28;20023;-75
2022/01/20 15:37:15;;;;;;;2.78;1.40;;;;;;;3.57;56.60;94858.13;4959269;28;20706;-76
2022/01/20 15:39:40;;;;;;;3.45;1.70;;;;;;;2.35;65.22;94848.75;4946717;28;20083;-76
2022/01/20 15:42:06;;;;;;;4.60;3.33;;;;;;;2.31;64.54;94840.53;4956872;28;20030;-75
2022/01/20 15:44:31;;;;;;;2.95;2.70;;;;;;;2.58;63.07;94840.88;4957097;28;20069;-75
2022/01/20 15:46:56;;;;;;;5.13;1.88;;;;;;;2.60;61.97;94833.88;4950702;28;20081;-76
2022/01/20 15:49:22;;;;;;;8.32;6.45;;;;;;;2.00;68.33;94834.53;4966038;28;20507;-76
2022/01/20 15:51:47;;;;;;;25.65;14.40;;;;;;;1.98;71.02;94838.97;4959233;28;20039;-76
2022/01/20 15:54:13;;;;;;;18.30;7.95;;;;;;;2.19;67.60;94836.41;4947522;29;20043;-76
2022/01/20 15:56:38;;;;;;;15.10;8.73;;;;;;;2.10;68.52;94832.06;4947891;29;20103;-76
2022/01/20 15:59:04;;;;;;;25.05;13.65;;;;;;;1.79;71.41;94840.53;4931358;29;20059;-74
2022/01/20 16:01:36;;;;;;;20.58;10.30;;;;;;;2.03;69.35;94836.03;4931253;29;20500;-75
2022/01/20 16:04:02;;;;;;;16.48;7.80;;;;;;;1.97;68.64;94832.22;4946343;29;20130;-76
2022/01/20 16:06:27;;;;;;;8.57;4.85;;;;;;;1.79;70.36;94828.59;4948885;29;20118;-76
2022/01/20 16:08:53;;;;;;;9.00;5.53;;;;;;;1.64;71.08;94826.44;4948996;29;20039;-75
2022/01/20 16:11:18;;;;;;;62.67;24.33;;;;;;;1.42;73.67;94845.94;4951356;29;20034;-75
2022/01/20 16:13:44;;;;;;;35.47;20.08;;;;;;;1.41;74.38;94836.66;4938126;29;20035;-75
2022/01/20 16:16:13;;;;;;;38.67;21.00;;;;;;;1.82;72.64;94833.44;4937914;29;20429;-76
2022/01/20 16:18:38;;;;;;;8.20;6.30;;;;;;;1.64;70.75;94832.31;4945826;29;20105;-75
2022/01/20 16:21:06;;;;;;;5.63;3.88;;;;;;;1.30;71.38;94823.94;4929698;28;20293;-76
2022/01/20 16:23:31;;;;;;;8.68;4.38;;;;;;;1.44;72.61;94833.91;4945978;28;20543;-74
2022/01/20 16:25:57;;;;;;;26.88;15.15;;;;;;;1.42;72.29;94828.09;4943924;29;20031;-74
2022/01/20 16:28:22;;;;;;;23.05;14.35;;;;;;;1.69;69.57;94819.22;4960916;28;20035;-73
2022/01/20 16:30:48;;;;;;;12.82;7.75;;;;;;;2.12;65.11;94819.97;4945658;28;20070;-74
2022/01/20 16:33:13;;;;;;;7.75;4.25;;;;;;;3.08;58.39;94807.75;4951612;28;20026;-74
2022/01/20 16:35:39;;;;;;;8.50;5.60;;;;;;;2.49;60.84;94808.41;4957372;28;20031;-74
2022/01/20 16:38:04;;;;;;;8.88;6.18;;;;;;;2.76;59.12;94802.75;4943966;28;20036;-73
2022/01/20 16:40:30;;;;;;;10.90;8.60;;;;;;;1.44;69.03;94800.75;4941634;28;20039;-74
2022/01/20 16:42:55;;;;;;;5.72;4.28;;;;;;;1.84;66.03;94806.06;4944868;29;20086;-74